sensor_id;sensor_type;location;lat;lon;timestamp;temperature;humidity
76291;DHT22;65100;46.884;17.410;2023-07-24T00:00:59;22.61;84.34
76291;DHT22;65100;46.884;17.410;2023-07-24T00:03:24;22.50;84.76
76291;DHT22;65100;46.884;17.410;2023-07-24T00:05:50;22.64;84.02
76291;DHT22;65100;46.884;17.410;2023-07-24T00:08:15;22.57;84.26
76291;DHT22;65100;46.884;17.410;2023-07-24T00:10:41;22.60;84.28
76291;DHT22;65100;46.884;17.410;2023-07-24T00:13:06;22.52;84.22
76291;DHT22;65100;46.884;17.410;2023-07-24T00:15:32;22.52;84.32
76291;DHT22;65100;46.884;17.410;2023-07-24T00:17:57;22.52;84.72
76291;DHT22;65100;46.884;17.410;2023-07-24T00:20:23;22.49;81.23
76291;DHT22;65100;46.884;17.410;2023-07-24T00:22:50;22.42;80.97
76291;DHT22;65100;46.884;17.410;2023-07-24T00:25:15;22.32;81.29
76291;DHT22;65100;46.884;17.410;2023-07-24T00:27:41;22.29;81.26
76291;DHT22;65100;46.884;17.410;2023-07-24T00:30:07;22.33;81.49
76291;DHT22;65100;46.884;17.410;2023-07-24T00:32:33;22.46;81.71
76291;DHT22;65100;46.884;17.410;2023-07-24T00:34:58;22.54;81.66
76291;DHT22;65100;46.884;17.410;2023-07-24T00:37:24;22.47;80.65
76291;DHT22;65100;46.884;17.410;2023-07-24T00:39:50;22.23;81.10
76291;DHT22;65100;46.884;17.410;2023-07-24T00:42:15;22.03;81.61
76291;DHT22;65100;46.884;17.410;2023-07-24T00:44:41;21.95;81.30
76291;DHT22;65100;46.884;17.410;2023-07-24T00:47:07;21.77;81.99
76291;DHT22;65100;46.884;17.410;2023-07-24T00:49:32;21.69;82.57
76291;DHT22;65100;46.884;17.410;2023-07-24T00:51:58;21.68;82.91
76291;DHT22;65100;46.884;17.410;2023-07-24T00:54:24;21.72;82.45
76291;DHT22;65100;46.884;17.410;2023-07-24T00:56:49;21.79;82.46
76291;DHT22;65100;46.884;17.410;2023-07-24T00:59:15;21.65;82.82
76291;DHT22;65100;46.884;17.410;2023-07-24T01:01:41;21.56;82.81
76291;DHT22;65100;46.884;17.410;2023-07-24T01:04:10;21.15;85.06
76291;DHT22;65100;46.884;17.410;2023-07-24T01:06:36;21.59;83.78
76291;DHT22;65100;46.884;17.410;2023-07-24T01:09:02;21.66;82.68
76291;DHT22;65100;46.884;17.410;2023-07-24T01:11:30;21.65;82.85
76291;DHT22;65100;46.884;17.410;2023-07-24T01:14:08;21.62;82.49
76291;DHT22;65100;46.884;17.410;2023-07-24T01:16:41;21.46;82.05
76291;DHT22;65100;46.884;17.410;2023-07-24T01:19:16;21.35;82.43
76291;DHT22;65100;46.884;17.410;2023-07-24T01:22:02;21.34;82.77
76291;DHT22;65100;46.884;17.410;2023-07-24T01:24:35;21.35;83.05
76291;DHT22;65100;46.884;17.410;2023-07-24T01:27:01;21.39;83.08
76291;DHT22;65100;46.884;17.410;2023-07-24T01:29:27;21.25;83.22
76291;DHT22;65100;46.884;17.410;2023-07-24T01:31:54;21.18;83.54
76291;DHT22;65100;46.884;17.410;2023-07-24T01:34:19;21.17;83.97
76291;DHT22;65100;46.884;17.410;2023-07-24T01:36:45;21.30;83.88
76291;DHT22;65100;46.884;17.410;2023-07-24T01:39:11;21.35;83.96
76291;DHT22;65100;46.884;17.410;2023-07-24T01:41:37;21.45;83.52
76291;DHT22;65100;46.884;17.410;2023-07-24T01:44:05;21.35;83.94
76291;DHT22;65100;46.884;17.410;2023-07-24T01:46:30;21.38;83.81
76291;DHT22;65100;46.884;17.410;2023-07-24T01:48:56;21.49;83.95
76291;DHT22;65100;46.884;17.410;2023-07-24T01:51:21;21.46;83.78
76291;DHT22;65100;46.884;17.410;2023-07-24T01:53:47;21.39;84.20
76291;DHT22;65100;46.884;17.410;2023-07-24T01:56:12;21.44;84.17
76291;DHT22;65100;46.884;17.410;2023-07-24T01:58:37;21.52;84.03
76291;DHT22;65100;46.884;17.410;2023-07-24T02:01:03;21.41;83.47
76291;DHT22;65100;46.884;17.410;2023-07-24T02:03:28;21.41;83.82
76291;DHT22;65100;46.884;17.410;2023-07-24T02:05:54;21.34;84.07
76291;DHT22;65100;46.884;17.410;2023-07-24T02:08:19;21.39;84.03
76291;DHT22;65100;46.884;17.410;2023-07-24T02:10:48;21.41;83.72
76291;DHT22;65100;46.884;17.410;2023-07-24T02:13:14;21.31;83.99
76291;DHT22;65100;46.884;17.410;2023-07-24T02:15:39;21.25;83.86
76291;DHT22;65100;46.884;17.410;2023-07-24T02:18:05;21.23;84.11
76291;DHT22;65100;46.884;17.410;2023-07-24T02:20:31;21.25;83.57
76291;DHT22;65100;46.884;17.410;2023-07-24T02:22:57;21.24;83.99
76291;DHT22;65100;46.884;17.410;2023-07-24T02:25:22;21.23;83.94
76291;DHT22;65100;46.884;17.410;2023-07-24T02:27:48;21.15;84.02
76291;DHT22;65100;46.884;17.410;2023-07-24T02:30:13;21.01;84.25
76291;DHT22;65100;46.884;17.410;2023-07-24T02:32:42;20.91;84.92
76291;DHT22;65100;46.884;17.410;2023-07-24T02:35:07;20.57;86.33
76291;DHT22;65100;46.884;17.410;2023-07-24T02:37:33;20.46;86.71
76291;DHT22;65100;46.884;17.410;2023-07-24T02:39:58;21.02;85.29
76291;DHT22;65100;46.884;17.410;2023-07-24T02:42:24;21.20;84.32
76291;DHT22;65100;46.884;17.410;2023-07-24T02:44:49;21.11;84.13
76291;DHT22;65100;46.884;17.410;2023-07-24T02:47:15;20.71;85.38
76291;DHT22;65100;46.884;17.410;2023-07-24T02:49:40;21.02;84.60
76291;DHT22;65100;46.884;17.410;2023-07-24T02:52:06;20.98;84.79
76291;DHT22;65100;46.884;17.410;2023-07-24T02:54:31;20.95;84.77
76291;DHT22;65100;46.884;17.410;2023-07-24T02:56:56;21.07;84.04
76291;DHT22;65100;46.884;17.410;2023-07-24T02:59:23;21.05;83.53
76291;DHT22;65100;46.884;17.410;2023-07-24T03:01:49;20.92;83.83
76291;DHT22;65100;46.884;17.410;2023-07-24T03:04:14;20.69;84.41
76291;DHT22;65100;46.884;17.410;2023-07-24T03:06:40;20.70;84.62
76291;DHT22;65100;46.884;17.410;2023-07-24T03:09:05;20.76;85.14
76291;DHT22;65100;46.884;17.410;2023-07-24T03:11:31;20.83;84.91
76291;DHT22;65100;46.884;17.410;2023-07-24T03:13:56;20.91;83.38
76291;DHT22;65100;46.884;17.410;2023-07-24T03:16:22;20.84;83.31
76291;DHT22;65100;46.884;17.410;2023-07-24T03:18:47;20.74;84.16
76291;DHT22;65100;46.884;17.410;2023-07-24T03:21:13;20.60;84.80
76291;DHT22;65100;46.884;17.410;2023-07-24T03:23:38;20.57;84.59
76291;DHT22;65100;46.884;17.410;2023-07-24T03:26:04;20.54;84.25
76291;DHT22;65100;46.884;17.410;2023-07-24T03:28:29;20.66;83.95
76291;DHT22;65100;46.884;17.410;2023-07-24T03:30:55;20.60;84.47
76291;DHT22;65100;46.884;17.410;2023-07-24T03:33:20;20.81;84.16
76291;DHT22;65100;46.884;17.410;2023-07-24T03:35:46;20.83;83.30
76291;DHT22;65100;46.884;17.410;2023-07-24T03:38:11;20.64;84.65
76291;DHT22;65100;46.884;17.410;2023-07-24T03:40:37;20.41;85.26
76291;DHT22;65100;46.884;17.410;2023-07-24T03:43:02;20.47;84.61
76291;DHT22;65100;46.884;17.410;2023-07-24T03:45:28;20.37;85.62
76291;DHT22;65100;46.884;17.410;2023-07-24T03:47:53;20.74;84.48
76291;DHT22;65100;46.884;17.410;2023-07-24T03:50:19;20.98;83.17
76291;DHT22;65100;46.884;17.410;2023-07-24T03:52:44;21.05;82.23
76291;DHT22;65100;46.884;17.410;2023-07-24T03:55:10;20.51;84.62
76291;DHT22;65100;46.884;17.410;2023-07-24T03:57:36;20.54;84.72
76291;DHT22;65100;46.884;17.410;2023-07-24T04:00:02;21.21;82.45
76291;DHT22;65100;46.884;17.410;2023-07-24T04:02:28;21.30;81.01
76291;DHT22;65100;46.884;17.410;2023-07-24T04:04:54;21.35;80.70
76291;DHT22;65100;46.884;17.410;2023-07-24T04:07:20;21.31;80.91
76291;DHT22;65100;46.884;17.410;2023-07-24T04:09:45;21.39;80.48
76291;DHT22;65100;46.884;17.410;2023-07-24T04:12:10;21.46;80.12
76291;DHT22;65100;46.884;17.410;2023-07-24T04:14:36;21.51;80.16
76291;DHT22;65100;46.884;17.410;2023-07-24T04:17:05;21.95;79.35
76291;DHT22;65100;46.884;17.410;2023-07-24T04:19:30;22.20;78.01
76291;DHT22;65100;46.884;17.410;2023-07-24T04:21:56;22.30;78.01
76291;DHT22;65100;46.884;17.410;2023-07-24T04:24:28;22.68;77.85
76291;DHT22;65100;46.884;17.410;2023-07-24T04:26:54;22.97;76.90
76291;DHT22;65100;46.884;17.410;2023-07-24T04:29:20;23.18;76.62
76291;DHT22;65100;46.884;17.410;2023-07-24T04:31:49;23.75;75.60
76291;DHT22;65100;46.884;17.410;2023-07-24T04:34:16;23.99;77.19
76291;DHT22;65100;46.884;17.410;2023-07-24T04:36:41;24.67;75.72
76291;DHT22;65100;46.884;17.410;2023-07-24T04:39:06;25.00;72.43
76291;DHT22;65100;46.884;17.410;2023-07-24T04:41:32;25.16;72.60
76291;DHT22;65100;46.884;17.410;2023-07-24T04:43:57;25.40;73.31
76291;DHT22;65100;46.884;17.410;2023-07-24T04:46:23;25.77;71.97
76291;DHT22;65100;46.884;17.410;2023-07-24T04:48:48;25.60;74.09
76291;DHT22;65100;46.884;17.410;2023-07-24T04:51:14;25.72;73.80
76291;DHT22;65100;46.884;17.410;2023-07-24T04:53:40;25.62;74.97
76291;DHT22;65100;46.884;17.410;2023-07-24T04:56:05;25.47;75.35
76291;DHT22;65100;46.884;17.410;2023-07-24T04:58:31;25.07;77.08
76291;DHT22;65100;46.884;17.410;2023-07-24T05:00:56;24.53;79.34
76291;DHT22;65100;46.884;17.410;2023-07-24T05:03:25;24.48;78.91
76291;DHT22;65100;46.884;17.410;2023-07-24T05:05:56;24.13;80.12
76291;DHT22;65100;46.884;17.410;2023-07-24T05:08:22;24.43;79.73
76291;DHT22;65100;46.884;17.410;2023-07-24T05:10:53;24.83;78.84
76291;DHT22;65100;46.884;17.410;2023-07-24T05:13:19;25.06;77.46
76291;DHT22;65100;46.884;17.410;2023-07-24T05:15:44;24.73;79.23
76291;DHT22;65100;46.884;17.410;2023-07-24T05:18:10;24.74;78.89
76291;DHT22;65100;46.884;17.410;2023-07-24T05:20:35;24.72;78.69
76291;DHT22;65100;46.884;17.410;2023-07-24T05:23:01;24.83;78.86
76291;DHT22;65100;46.884;17.410;2023-07-24T05:25:26;25.08;77.55
76291;DHT22;65100;46.884;17.410;2023-07-24T05:27:51;25.31;76.90
76291;DHT22;65100;46.884;17.410;2023-07-24T05:30:17;25.33;76.83
76291;DHT22;65100;46.884;17.410;2023-07-24T05:32:43;25.30;76.62
76291;DHT22;65100;46.884;17.410;2023-07-24T05:35:08;25.11;77.62
76291;DHT22;65100;46.884;17.410;2023-07-24T05:37:34;25.08;77.83
76291;DHT22;65100;46.884;17.410;2023-07-24T05:39:59;25.08;77.58
76291;DHT22;65100;46.884;17.410;2023-07-24T05:42:25;25.02;77.57
76291;DHT22;65100;46.884;17.410;2023-07-24T05:44:50;25.50;76.14
76291;DHT22;65100;46.884;17.410;2023-07-24T05:47:15;25.65;75.63
76291;DHT22;65100;46.884;17.410;2023-07-24T05:49:41;26.01;74.72
76291;DHT22;65100;46.884;17.410;2023-07-24T05:52:06;25.67;74.65
76291;DHT22;65100;46.884;17.410;2023-07-24T05:54:32;25.52;75.70
76291;DHT22;65100;46.884;17.410;2023-07-24T05:56:57;25.81;74.65
76291;DHT22;65100;46.884;17.410;2023-07-24T05:59:23;26.14;72.87
76291;DHT22;65100;46.884;17.410;2023-07-24T06:01:48;26.29;73.35
76291;DHT22;65100;46.884;17.410;2023-07-24T06:04:14;26.66;71.71
76291;DHT22;65100;46.884;17.410;2023-07-24T06:06:39;26.90;70.93
76291;DHT22;65100;46.884;17.410;2023-07-24T06:09:05;26.99;70.70
76291;DHT22;65100;46.884;17.410;2023-07-24T06:11:30;26.96;71.64
76291;DHT22;65100;46.884;17.410;2023-07-24T06:13:56;27.36;69.48
76291;DHT22;65100;46.884;17.410;2023-07-24T06:16:21;27.65;69.21
76291;DHT22;65100;46.884;17.410;2023-07-24T06:18:47;28.22;66.34
76291;DHT22;65100;46.884;17.410;2023-07-24T06:21:13;28.05;66.47
76291;DHT22;65100;46.884;17.410;2023-07-24T06:23:39;27.48;67.77
76291;DHT22;65100;46.884;17.410;2023-07-24T06:26:04;28.22;66.15
76291;DHT22;65100;46.884;17.410;2023-07-24T06:28:50;28.48;65.87
76291;DHT22;65100;46.884;17.410;2023-07-24T06:31:16;28.02;66.89
76291;DHT22;65100;46.884;17.410;2023-07-24T06:33:41;28.38;65.70
76291;DHT22;65100;46.884;17.410;2023-07-24T06:36:10;28.09;66.42
76291;DHT22;65100;46.884;17.410;2023-07-24T06:38:36;29.00;63.37
76291;DHT22;65100;46.884;17.410;2023-07-24T06:41:01;29.03;62.76
76291;DHT22;65100;46.884;17.410;2023-07-24T06:43:28;28.55;64.05
76291;DHT22;65100;46.884;17.410;2023-07-24T06:45:53;28.75;62.77
76291;DHT22;65100;46.884;17.410;2023-07-24T06:48:19;30.07;59.49
76291;DHT22;65100;46.884;17.410;2023-07-24T06:50:45;29.98;60.94
76291;DHT22;65100;46.884;17.410;2023-07-24T06:53:13;29.64;61.19
76291;DHT22;65100;46.884;17.410;2023-07-24T06:55:38;29.63;61.07
76291;DHT22;65100;46.884;17.410;2023-07-24T06:58:07;29.38;62.40
76291;DHT22;65100;46.884;17.410;2023-07-24T07:00:32;28.90;63.10
76291;DHT22;65100;46.884;17.410;2023-07-24T07:02:58;28.65;63.53
76291;DHT22;65100;46.884;17.410;2023-07-24T07:05:23;29.12;62.00
76291;DHT22;65100;46.884;17.410;2023-07-24T07:07:49;29.57;59.88
76291;DHT22;65100;46.884;17.410;2023-07-24T07:10:14;29.67;60.06
76291;DHT22;65100;46.884;17.410;2023-07-24T07:12:40;30.10;59.94
76291;DHT22;65100;46.884;17.410;2023-07-24T07:15:06;29.60;60.58
76291;DHT22;65100;46.884;17.410;2023-07-24T07:17:31;29.44;60.81
76291;DHT22;65100;46.884;17.410;2023-07-24T07:19:57;29.20;63.18
76291;DHT22;65100;46.884;17.410;2023-07-24T07:22:22;28.32;62.92
76291;DHT22;65100;46.884;17.410;2023-07-24T07:24:48;28.39;64.28
76291;DHT22;65100;46.884;17.410;2023-07-24T07:27:14;28.36;63.53
76291;DHT22;65100;46.884;17.410;2023-07-24T07:29:43;28.70;62.70
76291;DHT22;65100;46.884;17.410;2023-07-24T07:32:09;28.80;63.94
76291;DHT22;65100;46.884;17.410;2023-07-24T07:34:34;28.99;62.10
76291;DHT22;65100;46.884;17.410;2023-07-24T07:37:01;28.88;62.76
76291;DHT22;65100;46.884;17.410;2023-07-24T07:39:26;28.98;62.42
76291;DHT22;65100;46.884;17.410;2023-07-24T07:41:55;29.43;61.37
76291;DHT22;65100;46.884;17.410;2023-07-24T07:44:20;29.56;61.63
76291;DHT22;65100;46.884;17.410;2023-07-24T07:46:46;29.14;61.50
76291;DHT22;65100;46.884;17.410;2023-07-24T07:49:11;29.33;61.83
76291;DHT22;65100;46.884;17.410;2023-07-24T07:51:37;29.43;62.07
76291;DHT22;65100;46.884;17.410;2023-07-24T07:54:02;29.78;60.13
76291;DHT22;65100;46.884;17.410;2023-07-24T07:56:28;30.10;59.64
76291;DHT22;65100;46.884;17.410;2023-07-24T07:58:53;30.62;60.07
76291;DHT22;65100;46.884;17.410;2023-07-24T08:01:19;31.09;57.89
76291;DHT22;65100;46.884;17.410;2023-07-24T08:03:45;32.08;53.39
76291;DHT22;65100;46.884;17.410;2023-07-24T08:06:10;32.79;51.75
76291;DHT22;65100;46.884;17.410;2023-07-24T08:08:37;33.35;50.10
76291;DHT22;65100;46.884;17.410;2023-07-24T08:11:06;32.57;51.30
76291;DHT22;65100;46.884;17.410;2023-07-24T08:13:33;32.21;53.68
76291;DHT22;65100;46.884;17.410;2023-07-24T08:15:58;32.71;51.38
76291;DHT22;65100;46.884;17.410;2023-07-24T08:18:25;32.18;53.16
76291;DHT22;65100;46.884;17.410;2023-07-24T08:20:51;30.79;56.77
76291;DHT22;65100;46.884;17.410;2023-07-24T08:23:16;31.51;54.58
76291;DHT22;65100;46.884;17.410;2023-07-24T08:25:54;31.10;56.82
76291;DHT22;65100;46.884;17.410;2023-07-24T08:28:21;30.32;59.52
76291;DHT22;65100;46.884;17.410;2023-07-24T08:30:56;30.00;60.26
76291;DHT22;65100;46.884;17.410;2023-07-24T08:33:21;30.25;58.20
76291;DHT22;65100;46.884;17.410;2023-07-24T08:35:47;30.04;58.99
76291;DHT22;65100;46.884;17.410;2023-07-24T08:38:12;29.76;58.98
76291;DHT22;65100;46.884;17.410;2023-07-24T08:40:38;29.58;60.11
76291;DHT22;65100;46.884;17.410;2023-07-24T08:43:04;29.26;60.79
76291;DHT22;65100;46.884;17.410;2023-07-24T08:45:30;28.98;60.55
76291;DHT22;65100;46.884;17.410;2023-07-24T08:47:56;28.89;60.69
76291;DHT22;65100;46.884;17.410;2023-07-24T08:50:24;29.12;61.20
76291;DHT22;65100;46.884;17.410;2023-07-24T08:52:50;29.16;60.32
76291;DHT22;65100;46.884;17.410;2023-07-24T08:55:15;29.23;60.71
76291;DHT22;65100;46.884;17.410;2023-07-24T08:57:41;29.20;60.66
76291;DHT22;65100;46.884;17.410;2023-07-24T09:00:07;29.19;60.46
76291;DHT22;65100;46.884;17.410;2023-07-24T09:02:34;29.49;59.90
76291;DHT22;65100;46.884;17.410;2023-07-24T09:05:00;29.81;60.08
76291;DHT22;65100;46.884;17.410;2023-07-24T09:07:26;29.85;57.41
76291;DHT22;65100;46.884;17.410;2023-07-24T09:09:53;30.00;57.13
76291;DHT22;65100;46.884;17.410;2023-07-24T09:12:19;30.31;57.45
76291;DHT22;65100;46.884;17.410;2023-07-24T09:14:46;30.78;57.55
76291;DHT22;65100;46.884;17.410;2023-07-24T09:17:12;30.75;54.47
76291;DHT22;65100;46.884;17.410;2023-07-24T09:19:58;30.74;54.70
76291;DHT22;65100;46.884;17.410;2023-07-24T09:22:49;31.04;55.14
76291;DHT22;65100;46.884;17.410;2023-07-24T09:25:14;31.34;55.37
76291;DHT22;65100;46.884;17.410;2023-07-24T09:27:40;31.81;53.73
76291;DHT22;65100;46.884;17.410;2023-07-24T09:30:14;31.77;52.54
76291;DHT22;65100;46.884;17.410;2023-07-24T09:32:40;31.74;53.15
76291;DHT22;65100;46.884;17.410;2023-07-24T09:35:16;31.46;53.31
76291;DHT22;65100;46.884;17.410;2023-07-24T09:37:44;31.18;53.09
76291;DHT22;65100;46.884;17.410;2023-07-24T09:40:10;31.29;53.50
76291;DHT22;65100;46.884;17.410;2023-07-24T09:42:37;31.33;54.48
76291;DHT22;65100;46.884;17.410;2023-07-24T09:45:04;31.74;52.87
76291;DHT22;65100;46.884;17.410;2023-07-24T09:47:30;31.80;53.63
76291;DHT22;65100;46.884;17.410;2023-07-24T09:49:56;31.70;53.28
76291;DHT22;65100;46.884;17.410;2023-07-24T09:52:23;31.60;52.83
76291;DHT22;65100;46.884;17.410;2023-07-24T09:55:04;31.36;54.33
76291;DHT22;65100;46.884;17.410;2023-07-24T09:57:30;31.41;54.18
76291;DHT22;65100;46.884;17.410;2023-07-24T09:59:58;31.13;55.82
76291;DHT22;65100;46.884;17.410;2023-07-24T10:02:28;31.06;54.52
76291;DHT22;65100;46.884;17.410;2023-07-24T10:04:55;31.06;54.92
76291;DHT22;65100;46.884;17.410;2023-07-24T10:07:22;31.00;54.88
76291;DHT22;65100;46.884;17.410;2023-07-24T10:09:48;31.27;53.25
76291;DHT22;65100;46.884;17.410;2023-07-24T10:12:19;31.54;53.59
76291;DHT22;65100;46.884;17.410;2023-07-24T10:14:48;31.88;50.94
76291;DHT22;65100;46.884;17.410;2023-07-24T10:17:14;32.11;50.35
76291;DHT22;65100;46.884;17.410;2023-07-24T10:19:41;32.11;48.20
76291;DHT22;65100;46.884;17.410;2023-07-24T10:22:18;31.94;48.68
76291;DHT22;65100;46.884;17.410;2023-07-24T10:24:45;31.96;48.19
76291;DHT22;65100;46.884;17.410;2023-07-24T10:27:11;32.10;48.77
76291;DHT22;65100;46.884;17.410;2023-07-24T10:29:37;32.14;47.14
76291;DHT22;65100;46.884;17.410;2023-07-24T10:32:05;32.23;47.90
76291;DHT22;65100;46.884;17.410;2023-07-24T10:34:41;32.17;49.20
76291;DHT22;65100;46.884;17.410;2023-07-24T10:37:08;32.21;47.92
76291;DHT22;65100;46.884;17.410;2023-07-24T10:39:40;32.23;47.59
76291;DHT22;65100;46.884;17.410;2023-07-24T10:42:10;32.20;49.90
76291;DHT22;65100;46.884;17.410;2023-07-24T10:44:36;32.21;48.92
76291;DHT22;65100;46.884;17.410;2023-07-24T10:47:02;32.04;46.21
76291;DHT22;65100;46.884;17.410;2023-07-24T10:49:28;31.93;47.06
76291;DHT22;65100;46.884;17.410;2023-07-24T10:51:57;32.04;48.77
76291;DHT22;65100;46.884;17.410;2023-07-24T10:54:22;32.24;46.94
76291;DHT22;65100;46.884;17.410;2023-07-24T10:56:48;32.38;47.45
76291;DHT22;65100;46.884;17.410;2023-07-24T10:59:13;32.23;47.51
76291;DHT22;65100;46.884;17.410;2023-07-24T11:01:40;32.29;48.40
76291;DHT22;65100;46.884;17.410;2023-07-24T11:04:07;32.10;49.43
76291;DHT22;65100;46.884;17.410;2023-07-24T11:06:34;32.06;49.66
76291;DHT22;65100;46.884;17.410;2023-07-24T11:09:00;32.32;48.30
76291;DHT22;65100;46.884;17.410;2023-07-24T11:11:33;32.52;47.79
76291;DHT22;65100;46.884;17.410;2023-07-24T11:14:00;32.39;45.10
76291;DHT22;65100;46.884;17.410;2023-07-24T11:16:26;32.41;46.12
76291;DHT22;65100;46.884;17.410;2023-07-24T11:18:52;32.51;45.43
76291;DHT22;65100;46.884;17.410;2023-07-24T11:21:18;32.38;45.79
76291;DHT22;65100;46.884;17.410;2023-07-24T11:23:51;32.52;43.85
76291;DHT22;65100;46.884;17.410;2023-07-24T11:26:21;32.65;45.75
76291;DHT22;65100;46.884;17.410;2023-07-24T11:28:47;32.71;46.24
76291;DHT22;65100;46.884;17.410;2023-07-24T11:31:12;32.38;46.51
76291;DHT22;65100;46.884;17.410;2023-07-24T11:33:40;32.54;46.44
76291;DHT22;65100;46.884;17.410;2023-07-24T11:36:08;32.37;47.41
76291;DHT22;65100;46.884;17.410;2023-07-24T11:38:34;32.34;46.05
76291;DHT22;65100;46.884;17.410;2023-07-24T11:41:01;32.37;46.93
76291;DHT22;65100;46.884;17.410;2023-07-24T11:43:27;32.39;46.74
76291;DHT22;65100;46.884;17.410;2023-07-24T11:45:53;32.64;46.58
76291;DHT22;65100;46.884;17.410;2023-07-24T11:48:20;32.83;46.59
76291;DHT22;65100;46.884;17.410;2023-07-24T11:50:48;32.55;46.57
76291;DHT22;65100;46.884;17.410;2023-07-24T11:53:28;32.45;46.08
76291;DHT22;65100;46.884;17.410;2023-07-24T11:55:55;32.37;47.58
76291;DHT22;65100;46.884;17.410;2023-07-24T11:58:21;32.55;45.80
76291;DHT22;65100;46.884;17.410;2023-07-24T12:00:48;32.39;45.42
76291;DHT22;65100;46.884;17.410;2023-07-24T12:03:20;32.38;45.94
76291;DHT22;65100;46.884;17.410;2023-07-24T12:05:46;32.54;44.89
76291;DHT22;65100;46.884;17.410;2023-07-24T12:08:11;32.54;45.38
76291;DHT22;65100;46.884;17.410;2023-07-24T12:10:39;32.64;45.04
76291;DHT22;65100;46.884;17.410;2023-07-24T12:13:06;32.57;44.56
76291;DHT22;65100;46.884;17.410;2023-07-24T12:15:33;32.55;45.12
76291;DHT22;65100;46.884;17.410;2023-07-24T12:18:03;32.64;46.53
76291;DHT22;65100;46.884;17.410;2023-07-24T12:20:29;32.74;45.14
76291;DHT22;65100;46.884;17.410;2023-07-24T12:22:54;32.65;44.48
76291;DHT22;65100;46.884;17.410;2023-07-24T12:25:20;32.64;44.94
76291;DHT22;65100;46.884;17.410;2023-07-24T12:27:46;32.76;44.93
76291;DHT22;65100;46.884;17.410;2023-07-24T12:30:12;32.68;45.00
76291;DHT22;65100;46.884;17.410;2023-07-24T12:32:38;32.70;44.86
76291;DHT22;65100;46.884;17.410;2023-07-24T12:35:04;32.62;45.98
76291;DHT22;65100;46.884;17.410;2023-07-24T12:37:30;32.67;46.18
76291;DHT22;65100;46.884;17.410;2023-07-24T12:39:56;32.78;46.63
76291;DHT22;65100;46.884;17.410;2023-07-24T12:42:21;32.76;44.83
76291;DHT22;65100;46.884;17.410;2023-07-24T12:44:47;32.82;45.92
76291;DHT22;65100;46.884;17.410;2023-07-24T12:47:12;32.78;45.26
76291;DHT22;65100;46.884;17.410;2023-07-24T12:49:38;32.70;45.10
76291;DHT22;65100;46.884;17.410;2023-07-24T12:52:04;32.83;45.25
76291;DHT22;65100;46.884;17.410;2023-07-24T12:54:30;32.85;45.23
76291;DHT22;65100;46.884;17.410;2023-07-24T12:56:56;32.89;45.86
76291;DHT22;65100;46.884;17.410;2023-07-24T12:59:22;32.72;45.50
76291;DHT22;65100;46.884;17.410;2023-07-24T13:01:47;32.75;47.38
76291;DHT22;65100;46.884;17.410;2023-07-24T13:04:13;32.68;44.94
76291;DHT22;65100;46.884;17.410;2023-07-24T13:06:38;32.70;43.11
76291;DHT22;65100;46.884;17.410;2023-07-24T13:09:04;32.71;45.08
76291;DHT22;65100;46.884;17.410;2023-07-24T13:11:30;32.88;44.58
76291;DHT22;65100;46.884;17.410;2023-07-24T13:13:56;33.16;44.47
76291;DHT22;65100;46.884;17.410;2023-07-24T13:16:27;32.99;44.12
76291;DHT22;65100;46.884;17.410;2023-07-24T13:18:53;33.14;45.99
76291;DHT22;65100;46.884;17.410;2023-07-24T13:21:18;33.18;45.91
76291;DHT22;65100;46.884;17.410;2023-07-24T13:23:43;33.16;45.80
76291;DHT22;65100;46.884;17.410;2023-07-24T13:26:09;33.30;45.59
76291;DHT22;65100;46.884;17.410;2023-07-24T13:28:36;33.22;43.15
76291;DHT22;65100;46.884;17.410;2023-07-24T13:31:18;33.11;44.14
76291;DHT22;65100;46.884;17.410;2023-07-24T13:33:44;32.68;44.24
76291;DHT22;65100;46.884;17.410;2023-07-24T13:36:10;32.74;45.12
76291;DHT22;65100;46.884;17.410;2023-07-24T13:38:36;32.70;43.63
76291;DHT22;65100;46.884;17.410;2023-07-24T13:41:02;32.60;43.82
76291;DHT22;65100;46.884;17.410;2023-07-24T13:43:29;32.45;44.78
76291;DHT22;65100;46.884;17.410;2023-07-24T13:45:54;32.34;44.22
76291;DHT22;65100;46.884;17.410;2023-07-24T13:48:20;32.01;43.39
76291;DHT22;65100;46.884;17.410;2023-07-24T13:50:46;31.72;44.82
76291;DHT22;65100;46.884;17.410;2023-07-24T13:53:11;31.69;44.61
76291;DHT22;65100;46.884;17.410;2023-07-24T13:55:37;31.67;44.67
76291;DHT22;65100;46.884;17.410;2023-07-24T13:58:03;31.73;45.73
76291;DHT22;65100;46.884;17.410;2023-07-24T14:00:29;31.77;45.82
76291;DHT22;65100;46.884;17.410;2023-07-24T14:02:54;31.93;46.37
76291;DHT22;65100;46.884;17.410;2023-07-24T14:05:20;31.97;46.23
76291;DHT22;65100;46.884;17.410;2023-07-24T14:07:45;32.07;46.26
76291;DHT22;65100;46.884;17.410;2023-07-24T14:10:11;32.27;47.33
76291;DHT22;65100;46.884;17.410;2023-07-24T14:12:36;31.96;46.77
76291;DHT22;65100;46.884;17.410;2023-07-24T14:15:02;31.78;47.46
76291;DHT22;65100;46.884;17.410;2023-07-24T14:17:28;31.73;47.42
76291;DHT22;65100;46.884;17.410;2023-07-24T14:19:54;31.60;47.28
76291;DHT22;65100;46.884;17.410;2023-07-24T14:22:19;31.47;47.72
76291;DHT22;65100;46.884;17.410;2023-07-24T14:24:45;31.46;48.68
76291;DHT22;65100;46.884;17.410;2023-07-24T14:27:12;31.41;46.80
76291;DHT22;65100;46.884;17.410;2023-07-24T14:29:37;31.54;47.33
76291;DHT22;65100;46.884;17.410;2023-07-24T14:32:04;31.44;47.17
76291;DHT22;65100;46.884;17.410;2023-07-24T14:34:30;31.44;49.00
76291;DHT22;65100;46.884;17.410;2023-07-24T14:36:55;31.46;47.40
76291;DHT22;65100;46.884;17.410;2023-07-24T14:39:21;31.43;48.18
76291;DHT22;65100;46.884;17.410;2023-07-24T14:41:46;31.36;48.59
76291;DHT22;65100;46.884;17.410;2023-07-24T14:44:12;31.40;48.33
76291;DHT22;65100;46.884;17.410;2023-07-24T14:46:40;31.29;48.70
76291;DHT22;65100;46.884;17.410;2023-07-24T14:49:06;31.26;49.49
76291;DHT22;65100;46.884;17.410;2023-07-24T14:51:31;31.26;50.22
76291;DHT22;65100;46.884;17.410;2023-07-24T14:53:57;31.29;50.31
76291;DHT22;65100;46.884;17.410;2023-07-24T14:56:22;31.10;50.35
76291;DHT22;65100;46.884;17.410;2023-07-24T14:58:48;31.12;50.08
76291;DHT22;65100;46.884;17.410;2023-07-24T15:01:13;31.15;50.73
76291;DHT22;65100;46.884;17.410;2023-07-24T15:03:39;31.23;50.61
76291;DHT22;65100;46.884;17.410;2023-07-24T15:06:04;31.10;51.80
76291;DHT22;65100;46.884;17.410;2023-07-24T15:08:32;31.06;51.57
76291;DHT22;65100;46.884;17.410;2023-07-24T15:10:58;31.12;50.22